createdAt,value
2022-11-16T00:03:28.870Z,4.10
2022-11-16T00:18:30.434Z,6.35
2022-11-16T00:33:32.001Z,5.65
2022-11-16T00:48:33.794Z,4.43
2022-11-16T01:03:35.880Z,3.53
2022-11-16T01:18:37.722Z,4.00
2022-11-16T01:33:39.157Z,4.20
2022-11-16T01:48:43.935Z,4.63
2022-11-16T02:03:45.997Z,4.72
2022-11-16T02:18:47.511Z,3.85
2022-11-16T02:33:50.462Z,3.40
2022-11-16T02:48:51.882Z,4.72
2022-11-16T03:03:53.428Z,4.10
2022-11-16T03:18:54.953Z,4.32
2022-11-16T03:33:57.604Z,4.32
2022-11-16T03:48:59.497Z,4.47
2022-11-16T04:04:04.786Z,4.88
2022-11-16T04:19:25.485Z,6.22
2022-11-16T04:34:45.941Z,6.37
2022-11-16T04:49:47.639Z,5.77
2022-11-16T05:04:49.225Z,5.18
2022-11-16T05:20:10.949Z,3.53
2022-11-16T05:35:20.393Z,2.38
2022-11-16T05:50:21.946Z,2.30
2022-11-16T06:05:40.745Z,4.55
2022-11-16T06:20:54.850Z,5.90
2022-11-16T06:35:57.948Z,1.55
2022-11-16T06:50:59.825Z,1.30
2022-11-16T07:06:01.679Z,1.70
2022-11-16T07:21:03.381Z,2.40
2022-11-16T07:36:04.887Z,3.10
2022-11-16T07:51:07.820Z,2.20
2022-11-16T08:06:15.506Z,2.75
2022-11-16T08:21:17.923Z,2.78
2022-11-16T08:36:20.324Z,2.25
2022-11-16T08:51:23.598Z,1.40
2022-11-16T09:06:32.228Z,1.90
2022-11-16T09:21:36.079Z,1.48
2022-11-16T09:36:37.518Z,1.60
2022-11-16T09:51:38.904Z,1.77
2022-11-16T10:06:40.263Z,1.70
2022-11-16T10:36:43.491Z,1.50
2022-11-16T11:06:46.264Z,1.60
2022-11-16T11:36:49.275Z,1.87
2022-11-16T12:06:52.062Z,1.80
2022-11-16T12:36:57.220Z,1.20
2022-11-16T12:51:58.792Z,1.25
2022-11-16T13:07:00.234Z,1.50
2022-11-16T13:22:03.507Z,1.50
2022-11-16T13:37:05.032Z,1.48
2022-11-16T14:07:25.420Z,1.67
2022-11-16T14:22:29.092Z,1.50
2022-11-16T14:37:30.535Z,1.70
2022-11-16T14:52:31.927Z,1.90
2022-11-16T15:07:33.330Z,2.13
2022-11-16T15:22:34.780Z,2.08
2022-11-16T15:37:36.193Z,2.25
2022-11-16T15:52:40.569Z,2.60
2022-11-16T16:07:41.948Z,2.92
2022-11-16T16:22:44.506Z,2.33
2022-11-16T16:37:46.710Z,2.13
2022-11-16T16:52:48.634Z,2.50
2022-11-16T17:07:50.026Z,2.50
2022-11-16T17:22:52.767Z,2.45
2022-11-16T17:37:54.533Z,3.28
2022-11-16T17:52:58.255Z,3.58
2022-11-16T18:07:59.881Z,2.90
2022-11-16T18:23:01.267Z,2.50
2022-11-16T18:38:02.738Z,2.03
2022-11-16T18:53:05.035Z,1.83
2022-11-16T19:08:06.558Z,1.83
2022-11-16T19:23:08.116Z,1.55
2022-11-16T19:38:09.594Z,1.50
2022-11-16T19:53:11.055Z,1.80
2022-11-16T20:08:12.482Z,1.63
2022-11-16T20:23:14.434Z,1.58
2022-11-16T20:38:15.863Z,2.55
2022-11-16T20:53:17.808Z,2.33
2022-11-16T21:08:22.307Z,2.25
2022-11-16T21:23:23.785Z,2.17
2022-11-16T21:38:28.156Z,2.15
2022-11-16T21:53:29.568Z,2.40
2022-11-16T22:08:31.002Z,2.00
2022-11-16T22:23:32.479Z,2.10
2022-11-16T22:38:34.030Z,2.30
2022-11-16T22:53:35.747Z,2.42
2022-11-16T23:08:37.756Z,2.45
2022-11-16T23:23:57.643Z,2.45
2022-11-16T23:38:59.055Z,2.47
2022-11-16T23:54:00.532Z,2.50
